Ramore, Canada
Current Conditions -  °F | °C
As of 3:00 AM on Friday 24 Oct 2014 (Local Time) from CYTS Reporting Station
Clear Clear  
Wind Chill: 20°   Ceiling: Unl
Heat Index: 27°   Visibility: 15mi
Dew Point: 25°   Wind: 6mph
Humidity: 93%   Direction: 190°S
Pressure: 30"   Gusts: NA
Location:  48.42°N, 80.32°W
Report Text: CYTS 240700Z 19005KT 15SM SKC M03/M04 A3000 RMK FROIN SLP169
Loading
Personal Weather Stations






























Interactive Weather Map New forecast layout! Learn more

10-Day Weather Forecast

Advertisements
Track Severe Weather on mobile